Ellerslie, Maryland
Current Conditions -  °F | °C
As of 9:41 AM on Monday 22 Dec 2014 (Local Time) from KCBE Reporting Station
Broken Clouds Broken Clouds  
Wind Chill: 30°   Ceiling: 2000
Heat Index: 30°   Visibility: 4mi
Dew Point: 27°   Wind: 0mph
Humidity: 86%   Direction: NA
Pressure: 30.3"   Gusts: NA
Location:  39.72°N, 78.77°W
Report Text: KCBE 221441Z AUTO 00000KT 4SM BKN020 BKN030 BKN090 M01/M03 A3030 RMK AO1
Loading
Personal Weather Stations






























Interactive Weather Map New forecast layout! Learn more

10-Day Weather Forecast

Advertisements
Track Severe Weather on mobile